Aeroporto :
LOGIN :

Iscrizione | Disclaimer

   EN    FR    IT 

 










Sommario :    VFR   VFR Marginale   IFR   IFR Intensivo   IFR Molto Intensivo
Visibilità : 
Base nubi : 
>= 8 km
>= 3000ft
5 / 8 km
1000 / 3000 ft
1500m / 5 km
500 / 1000 ft
800 / 1500m
200 / 500 ft
< 800m
< 200 ft
Simboli :   Temporali  Nebbia  Neve Forte  Precipitazioni Forti  Vento > 20 kt
SIGMETs :   Varie  Temporali  Ghiacco  Turbolenza  Onda orograficha  Ceneri Vulcaniche






- Altitudine del aeroporto : 306 ft
- Codice IATA : EMA


EGNX - Nottingham East Midlands

ULTIMO METAR :
  • 120520Z 23015KT 9999 FEW038 03/01 Q0995

METARs OBSOLETI :
  • 120450Z 23014KT 9999 SCT030 03/01 Q0995
  • 120420Z 23013KT 9999 FEW015 SCT030 03/02 Q0995
  • 120350Z 23014KT 9999 FEW030 04/02 Q0996
  • 120320Z 24012KT 9999 FEW035 04/02 Q0996
  • 120250Z 23012KT 9999 FEW020 SCT034 03/02 Q0996

TAF TAF EGNX
Valido dal 12 a 06 ore il 13 a 06 ore UTC


120504Z 1206/1306 24014KT 9999 FEW012 SCT030
BECMG 1206/1209 25020G32KT
PROB30
TEMPO 1206/1208 7000 SHRA
TEMPO 1208/1213 6000 RA BKN012
PROB30
TEMPO 1208/1213 4000 +RA BKN009
BECMG 1211/1214 30015KT
ATIS : +44 1332 852 852 (ext 3201)



MetMap, La meteo Aeronautica in un colpo d'occhio ! - Copyright ORBIFLY Dicembre 2007 - Disclaimer

ORBIFLY MET'MAP TEAM :

Programmazione e sviluppo : Alexandra Zaïnal
Concezione e sviluppo : Baudouin d'Aumeries
Co-Programmazione e sviluppo : Marc-Olivier Méhu
Supporto tecnico e logistico : Manuel Goepfert
Aiuto per la traduzione : Arnaldo La Scala

Contatto : metmap@orbifly.com




FONTI E CREDITI :

   NOAA